Benedict, Minnesota
Current Conditions -  °F | °C
As of 1:35 AM on Sunday 23 Nov 2014 (Local Time) from KY49 Reporting Station
Haze Haze  
Wind Chill: 27°   Ceiling: 200
Heat Index: 32°   Visibility: 0.75mi
Dew Point: 32°   Wind: 5mph
Humidity: 99%   Direction: 150°SSE
Pressure: 29.39"   Gusts: NA
Location:  47.16°N, 94.69°W
Report Text: KY49 230735Z AUTO 15004KT 3/4SM BR OVC002 00/00 A2939 RMK AO2 T00001001
Loading
Personal Weather Stations






























Interactive Weather Map New forecast layout! Learn more

10-Day Weather Forecast

Advertisements
Track Severe Weather on mobile